Terminal Aerodrome Forecast
Issued by NWS

Home | Current Version | Previous Version | Text Only | Print | Product List | Glossary On
Versions: 1 2 3 4 5 6 7 8 9 10 11 12 13 14 15 16 17
000
FTUS43 KGRB 281700
TAFAUW
TAF
KAUW 281740Z 2818/2918 12007KT P6SM SCT025 OVC050
      TEMPO 2818/2820 2SM -SN OVC025
     FM282000 13007KT 6SM -SN BR SCT015 OVC030
      TEMPO 2820/2824 1 1/2SM -FZDZSN OVC015
     FM290000 17005KT 4SM -FZDZ BR OVC012
     FM290300 16004KT 2SM BR OVC009
     FM290800 16004KT 2SM BR OVC009
     FM291600 17006KT 3SM BR BKN008 BKN035=

USA.gov is the U.S. government's official web portal to all federal, state and local government web resources and services.